Sikinos — 9HA2865 — position and weather

sailwx.info

Track history (hours):
 
Tides and Currents Weather Stations Pressure Air Temp Water Temp Dewpoint Dewpoint Depression Visibility Wind Speed Wind Dir Waves Ship Positions

Sikinos

Last reported at 2017-Aug-18 10:30 UTC. Time now 2017-Aug-18 10:50 UTC.
Position N 51°01' E 002°11'.

Length 90 m; draft 4.6 m.

Type: Ship (hazmat cat A). MMSI: 256462000.

Date/timePositionNaut miles runAvg speedWind from/ knotsBaromVisibWave heightAir tempDewpointWater temp
2017-Aug-18 10:30N 51°01' E 002°11'0 0.0
2017-Aug-18 10:00N 51°01' E 002°11'0 0.0
2017-Aug-18 09:27N 51°01' E 002°11'0 0.8
2017-Aug-18 08:58N 51°01' E 002°10'3 5.6
2017-Aug-18 08:28N 51°04' E 002°13'5 9.9
2017-Aug-18 08:00N 51°04' E 002°20'1 1.4
2017-Aug-18 07:30N 51°03' E 002°20'1 0.8
2017-Aug-18 06:39N 51°03' E 002°19'0 0.0
2017-Aug-18 06:30N 51°03' E 002°19'0 0.0
2017-Aug-18 05:06N 51°03' E 002°19'0 0.0
2017-Aug-18 04:57N 51°03' E 002°19'0 0.0
2017-Aug-18 04:24N 51°03' E 002°19'0 0.0
2017-Aug-18 02:45N 51°03' E 002°19'0 0.0
2017-Aug-18 02:30N 51°03' E 002°19'0 0.0
2017-Aug-18 01:03N 51°03' E 002°19'0 0.0
2017-Aug-18 00:57N 51°03' E 002°19'0 0.1
2017-Aug-18 00:30N 51°03' E 002°19'0 0.6
2017-Aug-17 23:50N 51°03' E 002°19'0 0.0
2017-Aug-17 23:26N 51°03' E 002°19'0 0.0
2017-Aug-17 21:50N 51°03' E 002°19'0 0.0
2017-Aug-17 18:50N 51°03' E 002°19'0 0.0
2017-Aug-17 18:26N 51°03' E 002°19'0 0.0
2017-Aug-17 16:50N 51°03' E 002°19'0 0.0
2017-Aug-17 16:26N 51°03' E 002°19'0 0.0
2017-Aug-17 15:50N 51°03' E 002°19'0 0.0
2017-Aug-17 14:59N 51°03' E 002°19'0 0.7
2017-Aug-17 14:30N 51°03' E 002°19'1 1.6
2017-Aug-17 14:00N 51°03' E 002°20'2 3.1
2017-Aug-17 13:30N 51°04' E 002°18'510.9
2017-Aug-17 13:00N 51°03' E 002°10'611.2
2017-Aug-17 12:30N 51°02' E 002°01'611.4
2017-Aug-17 12:00N 51°03' E 001°52'1 1.5
2017-Aug-17 11:30N 51°03' E 001°51'5 9.4
2017-Aug-17 11:00N 51°05' E 001°57'510.3
2017-Aug-17 10:30N 51°07' E 002°05'510.2
2017-Aug-17 10:00N 51°09' E 002°13'510.0
2017-Aug-17 09:30N 51°10' E 002°20'510.0
2017-Aug-17 09:00N 51°13' E 002°26'5 9.8
2017-Aug-17 08:30N 51°17' E 002°32'5 9.9
2017-Aug-17 08:00N 51°20' E 002°38'4 9.0
2017-Aug-17 07:30N 51°22' E 002°44'5 9.8
2017-Aug-17 07:00N 51°22' E 002°52'510.3
2017-Aug-17 06:30N 51°22' E 003°00'510.2
2017-Aug-17 06:00N 51°22' E 003°09'2 4.7
2017-Aug-17 05:30N 51°21' E 003°12'0 0.0
2017-Aug-17 05:00N 51°21' E 003°12'0 0.0
2017-Aug-17 04:30N 51°21' E 003°12'0 0.0
2017-Aug-17 04:00N 51°21' E 003°12'0 0.0
2017-Aug-17 03:30N 51°21' E 003°12'0 0.0
2017-Aug-17 02:57N 51°21' E 003°12'0 0.0
2017-Aug-17 02:30N 51°21' E 003°12'0 0.0
2017-Aug-17 02:00N 51°21' E 003°12'0 0.0
2017-Aug-17 01:30N 51°21' E 003°12'0 0.0
2017-Aug-17 01:00N 51°21' E 003°12'0 0.0
2017-Aug-17 00:30N 51°21' E 003°12'0 0.0
2017-Aug-17 00:00N 51°21' E 003°12'0 0.0
2017-Aug-16 23:30N 51°21' E 003°12'0 0.0
2017-Aug-16 23:00N 51°21' E 003°12'0 0.0
2017-Aug-16 22:27N 51°21' E 003°12'0 0.0
2017-Aug-16 22:00N 51°21' E 003°12'0 0.0
2017-Aug-16 21:30N 51°21' E 003°12'0 0.0
2017-Aug-16 21:00N 51°21' E 003°12'0 0.0
2017-Aug-16 20:30N 51°21' E 003°12'0 0.0
2017-Aug-16 20:00N 51°21' E 003°12'0 0.0
2017-Aug-16 19:30N 51°21' E 003°12'0 0.0
2017-Aug-16 19:00N 51°21' E 003°12'0 0.0
2017-Aug-16 18:30N 51°21' E 003°12'0 0.0
2017-Aug-16 18:00N 51°21' E 003°12'0 0.0
2017-Aug-16 17:30N 51°21' E 003°12'0 0.0
2017-Aug-16 17:00N 51°21' E 003°12'0 0.0
2017-Aug-16 16:30N 51°21' E 003°12'0 0.0
2017-Aug-16 16:00N 51°21' E 003°12'0 0.0
2017-Aug-16 15:27N 51°21' E 003°12'0 0.0
2017-Aug-16 15:00N 51°21' E 003°12'0 0.0
2017-Aug-16 14:30N 51°21' E 003°12'0 0.0
2017-Aug-16 14:00N 51°21' E 003°12'0 0.0
2017-Aug-16 13:30N 51°21' E 003°12'0 0.0
2017-Aug-16 13:00N 51°21' E 003°12'0 0.0
2017-Aug-16 12:30N 51°21' E 003°12'0 0.0
2017-Aug-16 12:00N 51°21' E 003°12'0 0.0
2017-Aug-16 11:30N 51°21' E 003°12'0 0.0
2017-Aug-16 11:00N 51°21' E 003°12'0 0.0
2017-Aug-16 10:30N 51°21' E 003°12'0 0.0
2017-Aug-16 10:00N 51°21' E 003°12'0 0.0
2017-Aug-16 09:30N 51°21' E 003°12'0 0.0
2017-Aug-16 09:00N 51°21' E 003°12'0 0.0
2017-Aug-16 08:30N 51°21' E 003°12'0 0.0
2017-Aug-16 08:00N 51°21' E 003°12'0 0.0
2017-Aug-16 07:30N 51°21' E 003°12'0 0.0
2017-Aug-16 07:00N 51°21' E 003°12'0 0.0
2017-Aug-16 06:30N 51°21' E 003°12'0 0.0
2017-Aug-16 06:00N 51°21' E 003°12'0 0.0
2017-Aug-16 05:30N 51°21' E 003°12'0 0.0
2017-Aug-16 05:00N 51°21' E 003°12'0 0.0
2017-Aug-16 04:30N 51°21' E 003°12'0 0.0
2017-Aug-16 04:00N 51°21' E 003°12'0 0.0
2017-Aug-16 03:30N 51°21' E 003°12'0 0.0
2017-Aug-16 03:00N 51°21' E 003°12'0 0.0
2017-Aug-16 02:30N 51°21' E 003°12'0 0.0
2017-Aug-16 02:00N 51°21' E 003°12'0 0.0
2017-Aug-16 01:30N 51°21' E 003°12'0 0.0
2017-Aug-16 01:00N 51°21' E 003°12'0 0.0
2017-Aug-16 00:30N 51°21' E 003°12'0 0.0
2017-Aug-16 00:00N 51°21' E 003°12'0 0.0
2017-Aug-15 23:30N 51°21' E 003°12'0 0.0
2017-Aug-15 23:00N 51°21' E 003°12'0 0.0
2017-Aug-15 22:30N 51°21' E 003°12'0 0.0
2017-Aug-15 22:00N 51°21' E 003°12'0 0.0
2017-Aug-15 21:30N 51°21' E 003°12'0 0.0
2017-Aug-15 21:00N 51°21' E 003°12'0 0.0
2017-Aug-15 20:30N 51°21' E 003°12'0 0.0
2017-Aug-15 19:57N 51°21' E 003°12'0 0.0
2017-Aug-15 19:30N 51°21' E 003°12'0 0.0
2017-Aug-15 19:00N 51°21' E 003°12'0 0.0
2017-Aug-15 18:30N 51°21' E 003°12'0 0.0
2017-Aug-15 18:00N 51°21' E 003°12'0 0.0
2017-Aug-15 17:31N 51°21' E 003°12'3 5.7
2017-Aug-15 17:01N 51°22' E 003°08'713.9
2017-Aug-15 16:30N 51°22' E 002°57'713.4
2017-Aug-15 16:00N 51°23' E 002°46'4 7.6
2017-Aug-15 15:30N 51°25' E 002°42'4 8.8
2017-Aug-15 15:00N 51°30' E 002°41'5 9.1
2017-Aug-15 14:30N 51°34' E 002°41'5 9.0
2017-Aug-15 14:00N 51°39' E 002°39'5 9.2
2017-Aug-15 13:29N 51°44' E 002°38'16 8.3
2017-Aug-15 11:33N 51°56' E 002°23'38 9.8
2017-Aug-15 07:43N 52°33' E 002°06'3 9.9
2017-Aug-15 07:23N 52°36' E 002°05'4 9.8
2017-Aug-15 07:00N 52°39' E 002°03'5 9.6
2017-Aug-15 06:30N 52°44' E 002°01'5 9.8
2017-Aug-15 06:00N 52°47' E 001°55'510.5
2017-Aug-15 05:30N 52°50' E 001°48'510.7
2017-Aug-15 05:00N 52°53' E 001°41'510.8
2017-Aug-15 04:30N 52°57' E 001°34'511.0
2017-Aug-15 04:00N 53°02' E 001°29'611.4
2017-Aug-15 03:30N 53°07' E 001°24'611.6
2017-Aug-15 03:00N 53°11' E 001°19'611.8
2017-Aug-15 02:30N 53°17' E 001°14'611.9
2017-Aug-15 02:00N 53°22' E 001°09'611.8
2017-Aug-15 01:30N 53°27' E 001°03'4012.1
2017-Aug-14 22:09N 53°59' E 000°23'212.5
2017-Aug-14 22:00N 54°01' E 000°21'612.4
2017-Aug-14 21:30N 54°06' E 000°14'612.5
2017-Aug-14 21:00N 54°11' E 000°08'612.5
2017-Aug-14 20:30N 54°16' E 000°02'612.3
2017-Aug-14 20:00N 54°21' W 000°04'612.3
2017-Aug-14 19:30N 54°25' W 000°11'611.9
2017-Aug-14 19:00N 54°30' W 000°18'611.6
2017-Aug-14 18:29N 54°34' W 000°25'2110.9
2017-Aug-14 16:32N 54°49' W 000°52'110.8
2017-Aug-14 16:24N 54°50' W 000°54'411.1
2017-Aug-14 16:00N 54°53' W 000°59'510.9
2017-Aug-14 15:30N 54°57' W 001°06'510.8
2017-Aug-14 15:00N 54°60' W 001°13'510.6
2017-Aug-14 14:30N 55°01' W 001°22'3 5.6
2017-Aug-14 14:00N 54°60' W 001°27'0 0.0
2017-Aug-14 13:25N 54°60' W 001°27'0 0.0
2017-Aug-14 12:55N 54°60' W 001°27'0 0.0
2017-Aug-14 12:28N 54°60' W 001°27'0 0.0
2017-Aug-14 11:58N 54°60' W 001°27'0 0.0
2017-Aug-14 11:16N 54°60' W 001°27'0 0.0
2017-Aug-14 10:49N 54°60' W 001°27'0 0.0
2017-Aug-14 10:19N 54°60' W 001°27'0 0.0
2017-Aug-14 09:49N 54°60' W 001°27'0 0.0
2017-Aug-14 09:19N 54°60' W 001°27'0 0.0
2017-Aug-14 08:58N 54°60' W 001°27'0 0.0
2017-Aug-14 08:16N 54°60' W 001°27'0 0.0
2017-Aug-14 07:46N 54°60' W 001°27'0 0.0
2017-Aug-14 07:22N 54°60' W 001°27'0 0.0
2017-Aug-14 06:49N 54°60' W 001°27'0 0.0
2017-Aug-14 06:22N 54°60' W 001°27'0 0.1
2017-Aug-14 06:00N 54°60' W 001°27'2 3.5
2017-Aug-14 05:30N 55°01' W 001°24'1 2.5
2017-Aug-14 05:00N 55°01' W 001°22'1 1.8
2017-Aug-14 04:30N 55°02' W 001°23'0 0.0
2017-Aug-14 04:00N 55°02' W 001°23'0 0.0
2017-Aug-14 03:30N 55°02' W 001°23'0 0.0
2017-Aug-14 03:00N 55°02' W 001°23'0 0.0
2017-Aug-14 02:30N 55°02' W 001°23'0 0.0
2017-Aug-14 02:00N 55°02' W 001°23'0 0.0
2017-Aug-14 01:30N 55°02' W 001°23'0 0.0
2017-Aug-14 01:00N 55°02' W 001°23'0 0.0
2017-Aug-14 00:30N 55°02' W 001°23'0 0.0
2017-Aug-14 00:00N 55°02' W 001°23'0 0.0
2017-Aug-13 23:30N 55°02' W 001°23'0 0.0
2017-Aug-13 23:00N 55°02' W 001°23'0 0.0
2017-Aug-13 22:21N 55°02' W 001°23'0 0.0
2017-Aug-13 21:51N 55°02' W 001°23'0 0.0
2017-Aug-13 21:21N 55°02' W 001°23'0 0.0
2017-Aug-13 20:51N 55°02' W 001°23'0 0.1
2017-Aug-13 20:24N 55°02' W 001°23'0 0.5
2017-Aug-13 20:00N 55°02' W 001°23'4 7.9
2017-Aug-13 19:30N 55°00' W 001°16'611.7
2017-Aug-13 19:00N 54°58' W 001°07'611.7
2017-Aug-13 18:30N 54°55' W 000°58'611.8
2017-Aug-13 18:00N 54°52' W 000°49'612.0
2017-Aug-13 17:30N 54°49' W 000°40'612.3
2017-Aug-13 17:00N 54°46' W 000°31'612.7
2017-Aug-13 16:30N 54°43' W 000°21'613.0
2017-Aug-13 16:00N 54°40' W 000°11'612.7
2017-Aug-13 15:30N 54°35' W 000°04'713.5
2017-Aug-13 15:00N 54°29' E 000°01'713.6
2017-Aug-13 14:30N 54°23' E 000°07'713.8
2017-Aug-13 14:01N 54°17' E 000°13'713.8
2017-Aug-13 13:30N 54°11' E 000°20'713.9
2017-Aug-13 13:00N 54°05' E 000°25'6111.9
2017-Aug-13 07:52N 53°13' E 001°18'412.0
2017-Aug-13 07:30N 53°09' E 001°21'612.7
2017-Aug-13 07:00N 53°03' E 001°27'713.5
2017-Aug-13 06:30N 52°58' E 001°33'714.2
2017-Aug-13 06:00N 52°53' E 001°41'714.3
2017-Aug-13 05:31N 52°48' E 001°50'714.0
2017-Aug-13 05:00N 52°43' E 001°58'714.2
2017-Aug-13 04:29N 52°37' E 002°05'5011.1
2017-Aug-12 23:58N 51°47' E 002°13'510.3
2017-Aug-12 23:26N 51°43' E 002°08'510.6
2017-Aug-12 23:00N 51°40' E 002°03'510.7
2017-Aug-12 22:30N 51°36' E 001°57'611.2
2017-Aug-12 22:01N 51°33' E 001°49'612.0
2017-Aug-12 21:30N 51°30' E 001°41'612.4
2017-Aug-12 21:00N 51°27' E 001°32'612.1
2017-Aug-12 20:30N 51°25' E 001°23'0 0.3
2017-Aug-12 20:01N 51°25' E 001°23'0 0.0
2017-Aug-12 19:30N 51°25' E 001°23'0 0.0
2017-Aug-12 19:00N 51°25' E 001°23'0 0.0
2017-Aug-12 18:28N 51°25' E 001°23'0 0.0
2017-Aug-12 18:00N 51°25' E 001°23'0 0.0
2017-Aug-12 17:30N 51°25' E 001°23'0 0.0
2017-Aug-12 17:00N 51°25' E 001°23'0 0.0
2017-Aug-12 16:30N 51°25' E 001°23'0 0.0
2017-Aug-12 15:56N 51°25' E 001°23'0 0.1
2017-Aug-12 15:30N 51°25' E 001°23'0 0.2
2017-Aug-12 15:00N 51°25' E 001°23'0 0.0
2017-Aug-12 14:30N 51°25' E 001°23'0 0.0
2017-Aug-12 14:00N 51°25' E 001°23'0 0.0
2017-Aug-12 13:30N 51°25' E 001°23'0 0.0
2017-Aug-12 13:00N 51°25' E 001°23'0 0.0
2017-Aug-12 12:29N 51°25' E 001°23'0 0.0
2017-Aug-12 12:00N 51°25' E 001°23'0 0.0
2017-Aug-12 11:31N 51°25' E 001°23'0 0.0
2017-Aug-12 11:00N 51°25' E 001°23'0 0.1
2017-Aug-12 10:30N 51°25' E 001°23'0 0.2
2017-Aug-12 10:00N 51°25' E 001°23'0 0.0
2017-Aug-12 09:18N 51°25' E 001°23'0 0.0
2017-Aug-12 09:01N 51°25' E 001°23'0 0.0
2017-Aug-12 08:30N 51°25' E 001°23'0 0.0
2017-Aug-12 08:00N 51°25' E 001°23'0 0.0
2017-Aug-12 07:30N 51°25' E 001°23'0 0.0
2017-Aug-12 07:00N 51°25' E 001°23'0 0.0
2017-Aug-12 06:30N 51°25' E 001°23'0 0.0
2017-Aug-12 06:00N 51°25' E 001°23'0 0.0
2017-Aug-12 05:29N 51°25' E 001°23'0 0.0
2017-Aug-12 05:00N 51°25' E 001°23'0 0.0
2017-Aug-12 04:30N 51°25' E 001°23'0 0.0
2017-Aug-12 04:00N 51°25' E 001°23'0 0.0
2017-Aug-12 03:30N 51°25' E 001°23'0 0.2
2017-Aug-12 03:00N 51°25' E 001°23'0 0.1
2017-Aug-12 02:30N 51°25' E 001°23'0 0.0
2017-Aug-12 02:00N 51°25' E 001°23'0 0.0
2017-Aug-12 01:30N 51°25' E 001°23'0 0.0
2017-Aug-12 01:00N 51°25' E 001°23'0 0.0
2017-Aug-12 00:30N 51°25' E 001°23'0 0.0
2017-Aug-12 00:00N 51°25' E 001°23'0 0.1
2017-Aug-11 23:30N 51°25' E 001°23'0 0.2
2017-Aug-11 22:58N 51°25' E 001°23'0 0.1
2017-Aug-11 22:30N 51°25' E 001°23'0 0.0
2017-Aug-11 22:00N 51°25' E 001°23'0 0.0
2017-Aug-11 21:30N 51°25' E 001°23'0 0.0
2017-Aug-11 21:00N 51°25' E 001°23'0 0.0
2017-Aug-11 20:30N 51°25' E 001°23'0 0.0
2017-Aug-11 20:00N 51°25' E 001°23'0 0.0
2017-Aug-11 19:31N 51°25' E 001°23'0 0.0
2017-Aug-11 19:00N 51°25' E 001°23'0 0.0
2017-Aug-11 18:30N 51°25' E 001°23'0 0.0
2017-Aug-11 18:00N 51°25' E 001°23'0 0.0
2017-Aug-11 17:30N 51°25' E 001°23'0 0.0
2017-Aug-11 17:00N 51°25' E 001°23'0 0.0
2017-Aug-11 16:30N 51°25' E 001°23'0 0.0
2017-Aug-11 16:00N 51°25' E 001°23'0 0.0
2017-Aug-11 15:30N 51°25' E 001°23'0 0.2
2017-Aug-11 15:00N 51°25' E 001°23'0 0.1
2017-Aug-11 14:30N 51°25' E 001°23'0 0.0
2017-Aug-11 13:30N 51°25' E 001°23'0 0.0
2017-Aug-11 13:00N 51°25' E 001°23'0 0.0
2017-Aug-11 12:30N 51°25' E 001°23'0 0.0
2017-Aug-11 12:00N 51°25' E 001°23'0 0.0
2017-Aug-11 11:30N 51°25' E 001°23'1 2.3
2017-Aug-11 11:00N 51°25' E 001°25'510.3
2017-Aug-11 10:31N 51°27' E 001°32'612.9
2017-Aug-11 10:00N 51°29' E 001°42'4 7.6
2017-Aug-11 09:30N 51°28' E 001°48'0 0.0
2017-Aug-11 07:42N 51°28' E 001°48'0 0.5
2017-Aug-11 07:21N 51°28' E 001°48'0 0.2
2017-Aug-11 07:00N 51°28' E 001°48'0 0.1
2017-Aug-11 06:30N 51°28' E 001°48'0 0.0
2017-Aug-11 06:00N 51°28' E 001°48'0 0.0
2017-Aug-11 05:30N 51°28' E 001°48'0 0.0
2017-Aug-11 05:00N 51°28' E 001°48'0 0.0
2017-Aug-11 04:30N 51°28' E 001°48'0 0.0
2017-Aug-11 04:00N 51°28' E 001°48'0 0.0
2017-Aug-11 03:30N 51°28' E 001°48'0 0.0
2017-Aug-11 03:00N 51°28' E 001°48'0 0.0
2017-Aug-11 02:30N 51°28' E 001°48'0 0.0
2017-Aug-11 02:00N 51°28' E 001°48'0 0.2
2017-Aug-11 01:30N 51°28' E 001°48'0 0.5
2017-Aug-11 01:00N 51°28' E 001°48'0 0.0
2017-Aug-10 22:31N 51°28' E 001°48'0 0.5
2017-Aug-10 22:30N 51°28' E 001°48'0 1.0
2017-Aug-10 22:00N 51°27' E 001°48'4 7.3
2017-Aug-10 21:30N 51°29' E 001°53'612.0
2017-Aug-10 21:00N 51°31' E 002°02'713.5
2017-Aug-10 20:30N 51°36' E 002°09'713.1
2017-Aug-10 20:00N 51°41' E 002°17'6112.0
2017-Aug-10 14:55N 52°03' E 003°49'0 0.0
2017-Aug-10 14:30N 52°03' E 003°49'2 5.0
2017-Aug-10 14:00N 52°03' E 003°52'5 9.7
2017-Aug-10 13:30N 52°00' E 003°59'510.3
2017-Aug-10 13:00N 51°58' E 004°07'4 7.7
2017-Aug-10 12:30N 51°56' E 004°12'0 0.0
2017-Aug-10 11:08N 51°56' E 004°12'0 0.0
2017-Aug-10 11:00N 51°56' E 004°12'0 0.0
2017-Aug-10 10:30N 51°56' E 004°12'0 0.0
2017-Aug-10 09:01N 51°56' E 004°12'0 0.0
2017-Aug-10 09:00N 51°56' E 004°12'0 0.0
2017-Aug-10 08:30N 51°56' E 004°12'0 0.0
2017-Aug-10 08:00N 51°56' E 004°12'0 0.0
2017-Aug-10 06:54N 51°56' E 004°12'0 0.0
2017-Aug-10 06:30N 51°56' E 004°12'0 0.0
2017-Aug-10 06:00N 51°56' E 004°12'0 0.0
2017-Aug-10 05:30N 51°56' E 004°12'0 0.0
2017-Aug-10 05:00N 51°56' E 004°12'0 0.0
2017-Aug-10 04:30N 51°56' E 004°12'0 0.0
2017-Aug-10 04:00N 51°56' E 004°12'0 0.0
2017-Aug-10 03:30N 51°56' E 004°12'0 0.0
2017-Aug-10 02:52N 51°56' E 004°12'0 0.0
2017-Aug-10 02:30N 51°56' E 004°12'0 0.0
2017-Aug-10 02:00N 51°56' E 004°12'0 0.0
2017-Aug-10 01:30N 51°56' E 004°12'0 0.0
2017-Aug-10 01:00N 51°56' E 004°12'0 0.0
2017-Aug-10 00:30N 51°56' E 004°12'0 0.0
2017-Aug-09 23:40N 51°56' E 004°12'0 0.0
2017-Aug-09 23:30N 51°56' E 004°12'0 0.0
2017-Aug-09 22:14N 51°56' E 004°12'0 0.0
2017-Aug-09 22:00N 51°56' E 004°12'0 0.0
2017-Aug-09 21:29N 51°56' E 004°12'0 0.0
2017-Aug-09 21:00N 51°56' E 004°12'0 0.0
2017-Aug-09 20:30N 51°56' E 004°12'0 0.0
2017-Aug-09 20:00N 51°56' E 004°12'0 0.0
2017-Aug-09 19:30N 51°56' E 004°12'2 4.4
2017-Aug-09 19:00N 51°57' E 004°09'510.2
2017-Aug-09 18:30N 51°59' E 004°02'510.8
2017-Aug-09 18:01N 52°01' E 003°53'5 9.0
2017-Aug-09 17:30N 52°04' E 003°48'4 7.8
2017-Aug-09 17:00N 52°07' E 003°45'3 2.1
2017-Aug-09 15:29N 52°11' E 003°46'4 4.6
2017-Aug-09 14:36N 52°15' E 003°46'8610.9
2017-Aug-09 06:40N 53°31' E 004°53'210.4
2017-Aug-09 06:29N 53°32' E 004°56'10211.3
2017-Aug-08 21:25N 53°55' E 007°44'510.8
2017-Aug-08 20:59N 53°53' E 007°50'510.8
2017-Aug-08 20:30N 53°51' E 007°59'510.7
2017-Aug-08 20:00N 53°49' E 008°07'611.8
2017-Aug-08 19:30N 53°45' E 008°13'713.5
2017-Aug-08 19:00N 53°40' E 008°22'713.9
2017-Aug-08 18:30N 53°36' E 008°31'510.0
2017-Aug-08 18:00N 53°31' E 008°32'2 0.5
2017-Aug-08 12:59N 53°29' E 008°29'0 0.0
2017-Aug-08 12:17N 53°29' E 008°29'0 0.0
2017-Aug-08 11:53N 53°29' E 008°29'0 0.0
2017-Aug-08 11:23N 53°29' E 008°29'0 0.0
2017-Aug-08 10:56N 53°29' E 008°29'  
Track history (hours):
 
Tides and Currents Weather Stations Pressure Air Temp Water Temp Dewpoint Dewpoint Depression Visibility Wind Speed Wind Dir Waves Ship Positions

Sikinos

Last reported at 2017-Aug-18 10:30 UTC. Time now 2017-Aug-18 10:50 UTC.
Position N 51°01' E 002°11'.

Length 90 m; draft 4.6 m.

Type: Ship (hazmat cat A). MMSI: 256462000.

Date/timePositionNaut miles runAvg speedWind from/ knotsBaromVisibWave heightAir tempDewpointWater temp
2017-Aug-18 10:30N 51°01' E 002°11'0 0.0
2017-Aug-18 10:00N 51°01' E 002°11'0 0.0
2017-Aug-18 09:27N 51°01' E 002°11'0 0.8
2017-Aug-18 08:58N 51°01' E 002°10'3 5.6
2017-Aug-18 08:28N 51°04' E 002°13'5 9.9
2017-Aug-18 08:00N 51°04' E 002°20'1 1.4
2017-Aug-18 07:30N 51°03' E 002°20'1 0.8
2017-Aug-18 06:39N 51°03' E 002°19'0 0.0
2017-Aug-18 06:30N 51°03' E 002°19'0 0.0
2017-Aug-18 05:06N 51°03' E 002°19'0 0.0
2017-Aug-18 04:57N 51°03' E 002°19'0 0.0
2017-Aug-18 04:24N 51°03' E 002°19'0 0.0
2017-Aug-18 02:45N 51°03' E 002°19'0 0.0
2017-Aug-18 02:30N 51°03' E 002°19'0 0.0
2017-Aug-18 01:03N 51°03' E 002°19'0 0.0
2017-Aug-18 00:57N 51°03' E 002°19'0 0.1
2017-Aug-18 00:30N 51°03' E 002°19'0 0.6
2017-Aug-17 23:50N 51°03' E 002°19'0 0.0
2017-Aug-17 23:26N 51°03' E 002°19'0 0.0
2017-Aug-17 21:50N 51°03' E 002°19'0 0.0
2017-Aug-17 18:50N 51°03' E 002°19'0 0.0
2017-Aug-17 18:26N 51°03' E 002°19'0 0.0
2017-Aug-17 16:50N 51°03' E 002°19'0 0.0
2017-Aug-17 16:26N 51°03' E 002°19'0 0.0
2017-Aug-17 15:50N 51°03' E 002°19'0 0.0
2017-Aug-17 14:59N 51°03' E 002°19'0 0.7
2017-Aug-17 14:30N 51°03' E 002°19'1 1.6
2017-Aug-17 14:00N 51°03' E 002°20'2 3.1
2017-Aug-17 13:30N 51°04' E 002°18'510.9
2017-Aug-17 13:00N 51°03' E 002°10'611.2
2017-Aug-17 12:30N 51°02' E 002°01'611.4
2017-Aug-17 12:00N 51°03' E 001°52'1 1.5
2017-Aug-17 11:30N 51°03' E 001°51'5 9.4
2017-Aug-17 11:00N 51°05' E 001°57'510.3
2017-Aug-17 10:30N 51°07' E 002°05'510.2
2017-Aug-17 10:00N 51°09' E 002°13'510.0
2017-Aug-17 09:30N 51°10' E 002°20'510.0
2017-Aug-17 09:00N 51°13' E 002°26'5 9.8
2017-Aug-17 08:30N 51°17' E 002°32'5 9.9
2017-Aug-17 08:00N 51°20' E 002°38'4 9.0
2017-Aug-17 07:30N 51°22' E 002°44'5 9.8
2017-Aug-17 07:00N 51°22' E 002°52'510.3
2017-Aug-17 06:30N 51°22' E 003°00'510.2
2017-Aug-17 06:00N 51°22' E 003°09'2 4.7
2017-Aug-17 05:30N 51°21' E 003°12'0 0.0
2017-Aug-17 05:00N 51°21' E 003°12'0 0.0
2017-Aug-17 04:30N 51°21' E 003°12'0 0.0
2017-Aug-17 04:00N 51°21' E 003°12'0 0.0
2017-Aug-17 03:30N 51°21' E 003°12'0 0.0
2017-Aug-17 02:57N 51°21' E 003°12'0 0.0
2017-Aug-17 02:30N 51°21' E 003°12'0 0.0
2017-Aug-17 02:00N 51°21' E 003°12'0 0.0
2017-Aug-17 01:30N 51°21' E 003°12'0 0.0
2017-Aug-17 01:00N 51°21' E 003°12'0 0.0
2017-Aug-17 00:30N 51°21' E 003°12'0 0.0
2017-Aug-17 00:00N 51°21' E 003°12'0 0.0
2017-Aug-16 23:30N 51°21' E 003°12'0 0.0
2017-Aug-16 23:00N 51°21' E 003°12'0 0.0
2017-Aug-16 22:27N 51°21' E 003°12'0 0.0
2017-Aug-16 22:00N 51°21' E 003°12'0 0.0
2017-Aug-16 21:30N 51°21' E 003°12'0 0.0
2017-Aug-16 21:00N 51°21' E 003°12'0 0.0
2017-Aug-16 20:30N 51°21' E 003°12'0 0.0
2017-Aug-16 20:00N 51°21' E 003°12'0 0.0
2017-Aug-16 19:30N 51°21' E 003°12'0 0.0
2017-Aug-16 19:00N 51°21' E 003°12'0 0.0
2017-Aug-16 18:30N 51°21' E 003°12'0 0.0
2017-Aug-16 18:00N 51°21' E 003°12'0 0.0
2017-Aug-16 17:30N 51°21' E 003°12'0 0.0
2017-Aug-16 17:00N 51°21' E 003°12'0 0.0
2017-Aug-16 16:30N 51°21' E 003°12'0 0.0
2017-Aug-16 16:00N 51°21' E 003°12'0 0.0
2017-Aug-16 15:27N 51°21' E 003°12'0 0.0
2017-Aug-16 15:00N 51°21' E 003°12'0 0.0
2017-Aug-16 14:30N 51°21' E 003°12'0 0.0
2017-Aug-16 14:00N 51°21' E 003°12'0 0.0
2017-Aug-16 13:30N 51°21' E 003°12'0 0.0
2017-Aug-16 13:00N 51°21' E 003°12'0 0.0
2017-Aug-16 12:30N 51°21' E 003°12'0 0.0
2017-Aug-16 12:00N 51°21' E 003°12'0 0.0
2017-Aug-16 11:30N 51°21' E 003°12'0 0.0
2017-Aug-16 11:00N 51°21' E 003°12'0 0.0
2017-Aug-16 10:30N 51°21' E 003°12'0 0.0
2017-Aug-16 10:00N 51°21' E 003°12'0 0.0
2017-Aug-16 09:30N 51°21' E 003°12'0 0.0
2017-Aug-16 09:00N 51°21' E 003°12'0 0.0
2017-Aug-16 08:30N 51°21' E 003°12'0 0.0
2017-Aug-16 08:00N 51°21' E 003°12'0 0.0
2017-Aug-16 07:30N 51°21' E 003°12'0 0.0
2017-Aug-16 07:00N 51°21' E 003°12'0 0.0
2017-Aug-16 06:30N 51°21' E 003°12'0 0.0
2017-Aug-16 06:00N 51°21' E 003°12'0 0.0
2017-Aug-16 05:30N 51°21' E 003°12'0 0.0
2017-Aug-16 05:00N 51°21' E 003°12'0 0.0
2017-Aug-16 04:30N 51°21' E 003°12'0 0.0
2017-Aug-16 04:00N 51°21' E 003°12'0 0.0
2017-Aug-16 03:30N 51°21' E 003°12'0 0.0
2017-Aug-16 03:00N 51°21' E 003°12'0 0.0
2017-Aug-16 02:30N 51°21' E 003°12'0 0.0
2017-Aug-16 02:00N 51°21' E 003°12'0 0.0
2017-Aug-16 01:30N 51°21' E 003°12'0 0.0
2017-Aug-16 01:00N 51°21' E 003°12'0 0.0
2017-Aug-16 00:30N 51°21' E 003°12'0 0.0
2017-Aug-16 00:00N 51°21' E 003°12'0 0.0
2017-Aug-15 23:30N 51°21' E 003°12'0 0.0
2017-Aug-15 23:00N 51°21' E 003°12'0 0.0
2017-Aug-15 22:30N 51°21' E 003°12'0 0.0
2017-Aug-15 22:00N 51°21' E 003°12'0 0.0
2017-Aug-15 21:30N 51°21' E 003°12'0 0.0
2017-Aug-15 21:00N 51°21' E 003°12'0 0.0
2017-Aug-15 20:30N 51°21' E 003°12'0 0.0
2017-Aug-15 19:57N 51°21' E 003°12'0 0.0
2017-Aug-15 19:30N 51°21' E 003°12'0 0.0
2017-Aug-15 19:00N 51°21' E 003°12'0 0.0
2017-Aug-15 18:30N 51°21' E 003°12'0 0.0
2017-Aug-15 18:00N 51°21' E 003°12'0 0.0
2017-Aug-15 17:31N 51°21' E 003°12'3 5.7
2017-Aug-15 17:01N 51°22' E 003°08'713.9
2017-Aug-15 16:30N 51°22' E 002°57'713.4
2017-Aug-15 16:00N 51°23' E 002°46'4 7.6
2017-Aug-15 15:30N 51°25' E 002°42'4 8.8
2017-Aug-15 15:00N 51°30' E 002°41'5 9.1
2017-Aug-15 14:30N 51°34' E 002°41'5 9.0
2017-Aug-15 14:00N 51°39' E 002°39'5 9.2
2017-Aug-15 13:29N 51°44' E 002°38'16 8.3
2017-Aug-15 11:33N 51°56' E 002°23'38 9.8
2017-Aug-15 07:43N 52°33' E 002°06'3 9.9
2017-Aug-15 07:23N 52°36' E 002°05'4 9.8
2017-Aug-15 07:00N 52°39' E 002°03'5 9.6
2017-Aug-15 06:30N 52°44' E 002°01'5 9.8
2017-Aug-15 06:00N 52°47' E 001°55'510.5
2017-Aug-15 05:30N 52°50' E 001°48'510.7
2017-Aug-15 05:00N 52°53' E 001°41'510.8
2017-Aug-15 04:30N 52°57' E 001°34'511.0
2017-Aug-15 04:00N 53°02' E 001°29'611.4
2017-Aug-15 03:30N 53°07' E 001°24'611.6
2017-Aug-15 03:00N 53°11' E 001°19'611.8
2017-Aug-15 02:30N 53°17' E 001°14'611.9
2017-Aug-15 02:00N 53°22' E 001°09'611.8
2017-Aug-15 01:30N 53°27' E 001°03'4012.1
2017-Aug-14 22:09N 53°59' E 000°23'212.5
2017-Aug-14 22:00N 54°01' E 000°21'612.4
2017-Aug-14 21:30N 54°06' E 000°14'612.5
2017-Aug-14 21:00N 54°11' E 000°08'612.5
2017-Aug-14 20:30N 54°16' E 000°02'612.3
2017-Aug-14 20:00N 54°21' W 000°04'612.3
2017-Aug-14 19:30N 54°25' W 000°11'611.9
2017-Aug-14 19:00N 54°30' W 000°18'611.6
2017-Aug-14 18:29N 54°34' W 000°25'2110.9
2017-Aug-14 16:32N 54°49' W 000°52'110.8
2017-Aug-14 16:24N 54°50' W 000°54'411.1
2017-Aug-14 16:00N 54°53' W 000°59'510.9
2017-Aug-14 15:30N 54°57' W 001°06'510.8
2017-Aug-14 15:00N 54°60' W 001°13'510.6
2017-Aug-14 14:30N 55°01' W 001°22'3 5.6
2017-Aug-14 14:00N 54°60' W 001°27'0 0.0
2017-Aug-14 13:25N 54°60' W 001°27'0 0.0
2017-Aug-14 12:55N 54°60' W 001°27'0 0.0
2017-Aug-14 12:28N 54°60' W 001°27'0 0.0
2017-Aug-14 11:58N 54°60' W 001°27'0 0.0
2017-Aug-14 11:16N 54°60' W 001°27'0 0.0
2017-Aug-14 10:49N 54°60' W 001°27'0 0.0
2017-Aug-14 10:19N 54°60' W 001°27'0 0.0
2017-Aug-14 09:49N 54°60' W 001°27'0 0.0
2017-Aug-14 09:19N 54°60' W 001°27'0 0.0
2017-Aug-14 08:58N 54°60' W 001°27'0 0.0
2017-Aug-14 08:16N 54°60' W 001°27'0 0.0
2017-Aug-14 07:46N 54°60' W 001°27'0 0.0
2017-Aug-14 07:22N 54°60' W 001°27'0 0.0
2017-Aug-14 06:49N 54°60' W 001°27'0 0.0
2017-Aug-14 06:22N 54°60' W 001°27'0 0.1
2017-Aug-14 06:00N 54°60' W 001°27'2 3.5
2017-Aug-14 05:30N 55°01' W 001°24'1 2.5
2017-Aug-14 05:00N 55°01' W 001°22'1 1.8
2017-Aug-14 04:30N 55°02' W 001°23'0 0.0
2017-Aug-14 04:00N 55°02' W 001°23'0 0.0
2017-Aug-14 03:30N 55°02' W 001°23'0 0.0
2017-Aug-14 03:00N 55°02' W 001°23'0 0.0
2017-Aug-14 02:30N 55°02' W 001°23'0 0.0
2017-Aug-14 02:00N 55°02' W 001°23'0 0.0
2017-Aug-14 01:30N 55°02' W 001°23'0 0.0
2017-Aug-14 01:00N 55°02' W 001°23'0 0.0
2017-Aug-14 00:30N 55°02' W 001°23'0 0.0
2017-Aug-14 00:00N 55°02' W 001°23'0 0.0
2017-Aug-13 23:30N 55°02' W 001°23'0 0.0
2017-Aug-13 23:00N 55°02' W 001°23'0 0.0
2017-Aug-13 22:21N 55°02' W 001°23'0 0.0
2017-Aug-13 21:51N 55°02' W 001°23'0 0.0
2017-Aug-13 21:21N 55°02' W 001°23'0 0.0
2017-Aug-13 20:51N 55°02' W 001°23'0 0.1
2017-Aug-13 20:24N 55°02' W 001°23'0 0.5
2017-Aug-13 20:00N 55°02' W 001°23'4 7.9
2017-Aug-13 19:30N 55°00' W 001°16'611.7
2017-Aug-13 19:00N 54°58' W 001°07'611.7
2017-Aug-13 18:30N 54°55' W 000°58'611.8
2017-Aug-13 18:00N 54°52' W 000°49'612.0
2017-Aug-13 17:30N 54°49' W 000°40'612.3
2017-Aug-13 17:00N 54°46' W 000°31'612.7
2017-Aug-13 16:30N 54°43' W 000°21'613.0
2017-Aug-13 16:00N 54°40' W 000°11'612.7
2017-Aug-13 15:30N 54°35' W 000°04'713.5
2017-Aug-13 15:00N 54°29' E 000°01'713.6
2017-Aug-13 14:30N 54°23' E 000°07'713.8
2017-Aug-13 14:01N 54°17' E 000°13'713.8
2017-Aug-13 13:30N 54°11' E 000°20'713.9
2017-Aug-13 13:00N 54°05' E 000°25'6111.9
2017-Aug-13 07:52N 53°13' E 001°18'412.0
2017-Aug-13 07:30N 53°09' E 001°21'612.7
2017-Aug-13 07:00N 53°03' E 001°27'713.5
2017-Aug-13 06:30N 52°58' E 001°33'714.2
2017-Aug-13 06:00N 52°53' E 001°41'714.3
2017-Aug-13 05:31N 52°48' E 001°50'714.0
2017-Aug-13 05:00N 52°43' E 001°58'714.2
2017-Aug-13 04:29N 52°37' E 002°05'5011.1
2017-Aug-12 23:58N 51°47' E 002°13'510.3
2017-Aug-12 23:26N 51°43' E 002°08'510.6
2017-Aug-12 23:00N 51°40' E 002°03'510.7
2017-Aug-12 22:30N 51°36' E 001°57'611.2
2017-Aug-12 22:01N 51°33' E 001°49'612.0
2017-Aug-12 21:30N 51°30' E 001°41'612.4
2017-Aug-12 21:00N 51°27' E 001°32'612.1
2017-Aug-12 20:30N 51°25' E 001°23'0 0.3
2017-Aug-12 20:01N 51°25' E 001°23'0 0.0
2017-Aug-12 19:30N 51°25' E 001°23'0 0.0
2017-Aug-12 19:00N 51°25' E 001°23'0 0.0
2017-Aug-12 18:28N 51°25' E 001°23'0 0.0
2017-Aug-12 18:00N 51°25' E 001°23'0 0.0
2017-Aug-12 17:30N 51°25' E 001°23'0 0.0
2017-Aug-12 17:00N 51°25' E 001°23'0 0.0
2017-Aug-12 16:30N 51°25' E 001°23'0 0.0
2017-Aug-12 15:56N 51°25' E 001°23'0 0.1
2017-Aug-12 15:30N 51°25' E 001°23'0 0.2
2017-Aug-12 15:00N 51°25' E 001°23'0 0.0
2017-Aug-12 14:30N 51°25' E 001°23'0 0.0
2017-Aug-12 14:00N 51°25' E 001°23'0 0.0
2017-Aug-12 13:30N 51°25' E 001°23'0 0.0
2017-Aug-12 13:00N 51°25' E 001°23'0 0.0
2017-Aug-12 12:29N 51°25' E 001°23'0 0.0
2017-Aug-12 12:00N 51°25' E 001°23'0 0.0
2017-Aug-12 11:31N 51°25' E 001°23'0 0.0
2017-Aug-12 11:00N 51°25' E 001°23'0 0.1
2017-Aug-12 10:30N 51°25' E 001°23'0 0.2
2017-Aug-12 10:00N 51°25' E 001°23'0 0.0
2017-Aug-12 09:18N 51°25' E 001°23'0 0.0
2017-Aug-12 09:01N 51°25' E 001°23'0 0.0
2017-Aug-12 08:30N 51°25' E 001°23'0 0.0
2017-Aug-12 08:00N 51°25' E 001°23'0 0.0
2017-Aug-12 07:30N 51°25' E 001°23'0 0.0
2017-Aug-12 07:00N 51°25' E 001°23'0 0.0
2017-Aug-12 06:30N 51°25' E 001°23'0 0.0
2017-Aug-12 06:00N 51°25' E 001°23'0 0.0
2017-Aug-12 05:29N 51°25' E 001°23'0 0.0
2017-Aug-12 05:00N 51°25' E 001°23'0 0.0
2017-Aug-12 04:30N 51°25' E 001°23'0 0.0
2017-Aug-12 04:00N 51°25' E 001°23'0 0.0
2017-Aug-12 03:30N 51°25' E 001°23'0 0.2
2017-Aug-12 03:00N 51°25' E 001°23'0 0.1
2017-Aug-12 02:30N 51°25' E 001°23'0 0.0
2017-Aug-12 02:00N 51°25' E 001°23'0 0.0
2017-Aug-12 01:30N 51°25' E 001°23'0 0.0
2017-Aug-12 01:00N 51°25' E 001°23'0 0.0
2017-Aug-12 00:30N 51°25' E 001°23'0 0.0
2017-Aug-12 00:00N 51°25' E 001°23'0 0.1
2017-Aug-11 23:30N 51°25' E 001°23'0 0.2
2017-Aug-11 22:58N 51°25' E 001°23'0 0.1
2017-Aug-11 22:30N 51°25' E 001°23'0 0.0
2017-Aug-11 22:00N 51°25' E 001°23'0 0.0
2017-Aug-11 21:30N 51°25' E 001°23'0 0.0
2017-Aug-11 21:00N 51°25' E 001°23'0 0.0
2017-Aug-11 20:30N 51°25' E 001°23'0 0.0
2017-Aug-11 20:00N 51°25' E 001°23'0 0.0
2017-Aug-11 19:31N 51°25' E 001°23'0 0.0
2017-Aug-11 19:00N 51°25' E 001°23'0 0.0
2017-Aug-11 18:30N 51°25' E 001°23'0 0.0
2017-Aug-11 18:00N 51°25' E 001°23'0 0.0
2017-Aug-11 17:30N 51°25' E 001°23'0 0.0
2017-Aug-11 17:00N 51°25' E 001°23'0 0.0
2017-Aug-11 16:30N 51°25' E 001°23'0 0.0
2017-Aug-11 16:00N 51°25' E 001°23'0 0.0
2017-Aug-11 15:30N 51°25' E 001°23'0 0.2
2017-Aug-11 15:00N 51°25' E 001°23'0 0.1
2017-Aug-11 14:30N 51°25' E 001°23'0 0.0
2017-Aug-11 13:30N 51°25' E 001°23'0 0.0
2017-Aug-11 13:00N 51°25' E 001°23'0 0.0
2017-Aug-11 12:30N 51°25' E 001°23'0 0.0
2017-Aug-11 12:00N 51°25' E 001°23'0 0.0
2017-Aug-11 11:30N 51°25' E 001°23'1 2.3
2017-Aug-11 11:00N 51°25' E 001°25'510.3
2017-Aug-11 10:31N 51°27' E 001°32'612.9
2017-Aug-11 10:00N 51°29' E 001°42'4 7.6
2017-Aug-11 09:30N 51°28' E 001°48'0 0.0
2017-Aug-11 07:42N 51°28' E 001°48'0 0.5
2017-Aug-11 07:21N 51°28' E 001°48'0 0.2
2017-Aug-11 07:00N 51°28' E 001°48'0 0.1
2017-Aug-11 06:30N 51°28' E 001°48'0 0.0
2017-Aug-11 06:00N 51°28' E 001°48'0 0.0
2017-Aug-11 05:30N 51°28' E 001°48'0 0.0
2017-Aug-11 05:00N 51°28' E 001°48'0 0.0
2017-Aug-11 04:30N 51°28' E 001°48'0 0.0
2017-Aug-11 04:00N 51°28' E 001°48'0 0.0
2017-Aug-11 03:30N 51°28' E 001°48'0 0.0
2017-Aug-11 03:00N 51°28' E 001°48'0 0.0
2017-Aug-11 02:30N 51°28' E 001°48'0 0.0
2017-Aug-11 02:00N 51°28' E 001°48'0 0.2
2017-Aug-11 01:30N 51°28' E 001°48'0 0.5
2017-Aug-11 01:00N 51°28' E 001°48'0 0.0
2017-Aug-10 22:31N 51°28' E 001°48'0 0.5
2017-Aug-10 22:30N 51°28' E 001°48'0 1.0
2017-Aug-10 22:00N 51°27' E 001°48'4 7.3
2017-Aug-10 21:30N 51°29' E 001°53'612.0
2017-Aug-10 21:00N 51°31' E 002°02'713.5
2017-Aug-10 20:30N 51°36' E 002°09'713.1
2017-Aug-10 20:00N 51°41' E 002°17'6112.0
2017-Aug-10 14:55N 52°03' E 003°49'0 0.0
2017-Aug-10 14:30N 52°03' E 003°49'2 5.0
2017-Aug-10 14:00N 52°03' E 003°52'5 9.7
2017-Aug-10 13:30N 52°00' E 003°59'510.3
2017-Aug-10 13:00N 51°58' E 004°07'4 7.7
2017-Aug-10 12:30N 51°56' E 004°12'0 0.0
2017-Aug-10 11:08N 51°56' E 004°12'0 0.0
2017-Aug-10 11:00N 51°56' E 004°12'0 0.0
2017-Aug-10 10:30N 51°56' E 004°12'0 0.0
2017-Aug-10 09:01N 51°56' E 004°12'0 0.0
2017-Aug-10 09:00N 51°56' E 004°12'0 0.0
2017-Aug-10 08:30N 51°56' E 004°12'0 0.0
2017-Aug-10 08:00N 51°56' E 004°12'0 0.0
2017-Aug-10 06:54N 51°56' E 004°12'0 0.0
2017-Aug-10 06:30N 51°56' E 004°12'0 0.0
2017-Aug-10 06:00N 51°56' E 004°12'0 0.0
2017-Aug-10 05:30N 51°56' E 004°12'0 0.0
2017-Aug-10 05:00N 51°56' E 004°12'0 0.0
2017-Aug-10 04:30N 51°56' E 004°12'0 0.0
2017-Aug-10 04:00N 51°56' E 004°12'0 0.0
2017-Aug-10 03:30N 51°56' E 004°12'0 0.0
2017-Aug-10 02:52N 51°56' E 004°12'0 0.0
2017-Aug-10 02:30N 51°56' E 004°12'0 0.0
2017-Aug-10 02:00N 51°56' E 004°12'0 0.0
2017-Aug-10 01:30N 51°56' E 004°12'0 0.0
2017-Aug-10 01:00N 51°56' E 004°12'0 0.0
2017-Aug-10 00:30N 51°56' E 004°12'0 0.0
2017-Aug-09 23:40N 51°56' E 004°12'0 0.0
2017-Aug-09 23:30N 51°56' E 004°12'0 0.0
2017-Aug-09 22:14N 51°56' E 004°12'0 0.0
2017-Aug-09 22:00N 51°56' E 004°12'0 0.0
2017-Aug-09 21:29N 51°56' E 004°12'0 0.0
2017-Aug-09 21:00N 51°56' E 004°12'0 0.0
2017-Aug-09 20:30N 51°56' E 004°12'0 0.0
2017-Aug-09 20:00N 51°56' E 004°12'0 0.0
2017-Aug-09 19:30N 51°56' E 004°12'2 4.4
2017-Aug-09 19:00N 51°57' E 004°09'510.2
2017-Aug-09 18:30N 51°59' E 004°02'510.8
2017-Aug-09 18:01N 52°01' E 003°53'5 9.0
2017-Aug-09 17:30N 52°04' E 003°48'4 7.8
2017-Aug-09 17:00N 52°07' E 003°45'3 2.1
2017-Aug-09 15:29N 52°11' E 003°46'4 4.6
2017-Aug-09 14:36N 52°15' E 003°46'8610.9
2017-Aug-09 06:40N 53°31' E 004°53'210.4
2017-Aug-09 06:29N 53°32' E 004°56'10211.3
2017-Aug-08 21:25N 53°55' E 007°44'510.8
2017-Aug-08 20:59N 53°53' E 007°50'510.8
2017-Aug-08 20:30N 53°51' E 007°59'510.7
2017-Aug-08 20:00N 53°49' E 008°07'611.8
2017-Aug-08 19:30N 53°45' E 008°13'713.5
2017-Aug-08 19:00N 53°40' E 008°22'713.9
2017-Aug-08 18:30N 53°36' E 008°31'510.0
2017-Aug-08 18:00N 53°31' E 008°32'2 0.5
2017-Aug-08 12:59N 53°29' E 008°29'0 0.0
2017-Aug-08 12:17N 53°29' E 008°29'0 0.0
2017-Aug-08 11:53N 53°29' E 008°29'0 0.0
2017-Aug-08 11:23N 53°29' E 008°29'0 0.0
2017-Aug-08 10:56N 53°29' E 008°29'  

Dump ship's entire track history